createdAt,value
2022-07-29T00:00:49.881Z,1011.31
2022-07-29T00:01:56.023Z,1011.31
2022-07-29T00:03:02.192Z,1011.31
2022-07-29T00:04:08.429Z,1011.31
2022-07-29T00:05:14.694Z,1011.31
2022-07-29T00:06:20.846Z,1011.31
2022-07-29T00:07:27.061Z,1011.31
2022-07-29T00:08:33.206Z,1011.31
2022-07-29T00:09:44.899Z,1011.31
2022-07-29T00:10:56.949Z,1011.31
2022-07-29T00:12:03.088Z,1011.31
2022-07-29T00:13:09.227Z,1011.31
2022-07-29T00:14:15.593Z,1011.31
2022-07-29T00:15:22.182Z,1011.31
2022-07-29T00:16:28.395Z,1011.31
2022-07-29T00:17:34.580Z,1011.31
2022-07-29T00:18:40.727Z,1011.31
2022-07-29T00:19:46.878Z,1011.31
2022-07-29T00:20:53.107Z,1011.31
2022-07-29T00:21:59.257Z,1011.31
2022-07-29T00:23:05.457Z,1011.31
2022-07-29T00:24:11.782Z,1011.31
2022-07-29T00:25:18.085Z,1011.31
2022-07-29T00:26:24.318Z,1011.31
2022-07-29T00:27:30.467Z,1011.31
2022-07-29T00:28:36.614Z,1011.31
2022-07-29T00:29:42.769Z,1011.31
2022-07-29T00:30:49.188Z,1011.31
2022-07-29T00:31:55.382Z,1011.31
2022-07-29T00:33:01.556Z,1011.31
2022-07-29T00:34:07.707Z,1011.31
2022-07-29T00:35:13.936Z,1011.31
2022-07-29T00:36:20.081Z,1011.31
2022-07-29T00:37:26.227Z,1011.31
2022-07-29T00:38:32.378Z,1011.31
2022-07-29T00:39:38.528Z,1011.31
2022-07-29T00:40:44.777Z,1011.31
2022-07-29T00:41:50.926Z,1011.31
2022-07-29T00:42:57.079Z,1011.31
2022-07-29T00:44:03.347Z,1011.31
2022-07-29T00:45:09.748Z,1011.31
2022-07-29T00:46:15.949Z,1011.31
2022-07-29T00:47:22.111Z,1011.31
2022-07-29T00:48:28.260Z,1011.31
2022-07-29T00:49:34.405Z,1011.31
2022-07-29T00:50:40.634Z,1011.31
2022-07-29T00:51:46.782Z,1011.31
2022-07-29T00:52:53.623Z,1011.31
2022-07-29T00:53:59.765Z,1011.31
2022-07-29T00:55:08.652Z,1011.31
2022-07-29T00:56:15.047Z,1011.31
2022-07-29T00:57:21.198Z,1011.31
2022-07-29T00:58:27.346Z,1011.31
2022-07-29T00:59:35.153Z,1011.31
2022-07-29T01:00:41.943Z,1011.31
2022-07-29T01:01:48.209Z,1011.31
2022-07-29T01:02:54.387Z,1011.31
2022-07-29T01:04:00.527Z,1011.31
2022-07-29T01:05:06.750Z,1011.31
2022-07-29T01:06:12.900Z,1011.31
2022-07-29T01:07:19.072Z,1011.31
2022-07-29T01:08:25.220Z,1011.31
2022-07-29T01:09:42.175Z,1011.31
2022-07-29T01:10:53.256Z,1011.31
2022-07-29T01:12:00.926Z,1011.31
2022-07-29T01:13:08.534Z,1011.31
2022-07-29T01:14:15.101Z,1011.31
2022-07-29T01:15:21.689Z,1011.31
2022-07-29T01:16:27.915Z,1011.31
2022-07-29T01:17:34.086Z,1011.31
2022-07-29T01:18:40.300Z,1011.31
2022-07-29T01:19:46.455Z,1011.31
2022-07-29T01:20:52.686Z,1011.31
2022-07-29T01:21:58.835Z,1011.31
2022-07-29T01:23:04.982Z,1011.31
2022-07-29T01:24:11.156Z,1011.31
2022-07-29T01:25:17.534Z,1011.31
2022-07-29T01:26:23.685Z,1011.31
2022-07-29T01:27:29.942Z,1011.31
2022-07-29T01:28:36.116Z,1011.31
2022-07-29T01:29:42.274Z,1011.31
2022-07-29T01:30:50.414Z,1011.31
2022-07-29T01:32:01.190Z,1011.31
2022-07-29T01:33:07.508Z,1011.31
2022-07-29T01:34:14.007Z,1011.31
2022-07-29T01:35:20.435Z,1011.31
2022-07-29T01:36:26.599Z,1011.31
2022-07-29T01:37:32.746Z,1011.31
2022-07-29T01:38:38.892Z,1011.31
2022-07-29T01:39:45.035Z,1011.31
2022-07-29T01:40:51.267Z,1011.31
2022-07-29T01:41:57.412Z,1011.31
2022-07-29T01:43:03.560Z,1011.31
2022-07-29T01:44:09.710Z,1011.31
2022-07-29T01:45:16.112Z,1011.31
2022-07-29T01:46:22.376Z,1011.31
2022-07-29T01:47:28.612Z,1011.31
2022-07-29T01:48:34.756Z,1011.31
2022-07-29T01:49:40.902Z,1011.31
2022-07-29T01:50:47.150Z,1011.31
2022-07-29T01:51:53.297Z,1011.31
2022-07-29T01:52:59.455Z,1011.31
2022-07-29T01:54:05.603Z,1011.31
2022-07-29T01:55:11.833Z,1011.31
2022-07-29T01:56:17.978Z,1011.31
2022-07-29T01:57:24.134Z,1011.31
2022-07-29T01:58:30.291Z,1011.31
2022-07-29T01:59:36.439Z,1011.31
2022-07-29T02:00:43.855Z,1011.31
2022-07-29T02:01:50.145Z,1011.31
2022-07-29T02:03:00.723Z,1011.31
2022-07-29T02:04:06.940Z,1011.31
2022-07-29T02:05:13.211Z,1011.31
2022-07-29T02:06:19.390Z,1011.31
2022-07-29T02:07:25.542Z,1011.31
2022-07-29T02:08:31.722Z,1011.31
2022-07-29T02:09:37.871Z,1011.31
2022-07-29T02:10:44.102Z,1011.31
2022-07-29T02:11:50.245Z,1011.31
2022-07-29T02:12:56.396Z,1011.31
2022-07-29T02:14:02.541Z,1011.31
2022-07-29T02:15:08.938Z,1011.31
2022-07-29T02:16:17.716Z,1011.31
2022-07-29T02:17:23.923Z,1011.31
2022-07-29T02:18:30.094Z,1011.31
2022-07-29T02:19:36.247Z,1011.31
2022-07-29T02:20:42.471Z,1011.31
2022-07-29T02:21:48.617Z,1011.31
2022-07-29T02:22:54.758Z,1011.31
2022-07-29T02:24:00.912Z,1011.31
2022-07-29T02:25:07.138Z,1011.31
2022-07-29T02:26:20.083Z,1011.31
2022-07-29T02:27:26.233Z,1011.31
2022-07-29T02:28:32.372Z,1011.31
2022-07-29T02:29:38.516Z,1011.31
2022-07-29T02:30:44.942Z,1011.31
2022-07-29T02:31:51.167Z,1011.31
2022-07-29T02:32:57.308Z,1011.31
2022-07-29T02:34:03.450Z,1011.31
2022-07-29T02:35:09.686Z,1011.31
2022-07-29T02:36:15.833Z,1011.31
2022-07-29T02:37:21.979Z,1011.31
2022-07-29T02:38:28.120Z,1011.31
2022-07-29T02:39:34.261Z,1011.31
2022-07-29T02:40:40.497Z,1011.31
2022-07-29T02:41:46.640Z,1011.31
2022-07-29T02:42:52.783Z,1011.31
2022-07-29T02:43:58.926Z,1011.31
2022-07-29T02:45:05.320Z,1011.31
2022-07-29T02:46:12.713Z,1011.31
2022-07-29T02:47:41.876Z,1011.31
2022-07-29T02:48:48.429Z,1011.31
2022-07-29T02:49:54.629Z,1011.31
2022-07-29T02:51:00.772Z,1011.31
2022-07-29T02:52:06.914Z,1011.31
2022-07-29T02:53:13.053Z,1011.31
2022-07-29T02:54:19.485Z,1011.31
2022-07-29T02:55:25.888Z,1011.31
2022-07-29T02:56:32.051Z,1011.31
2022-07-29T02:57:53.945Z,1011.31
2022-07-29T02:59:01.363Z,1011.31
2022-07-29T03:00:07.771Z,1011.31
2022-07-29T03:00:39.786Z,1010.33
2022-07-29T03:01:11.149Z,1010.33
2022-07-29T03:01:34.022Z,1010.43
2022-07-29T03:01:58.262Z,1010.43
2022-07-29T03:02:30.601Z,1010.43
2022-07-29T03:03:02.950Z,1010.33
2022-07-29T03:03:33.929Z,1010.33
2022-07-29T03:04:07.031Z,1010.33
2022-07-29T03:04:34.878Z,1010.33
2022-07-29T03:04:54.300Z,1010.33
2022-07-29T03:05:26.284Z,1010.33
2022-07-29T03:05:58.215Z,1010.53
2022-07-29T03:06:37.780Z,1010.53
2022-07-29T03:07:02.215Z,1010.33
2022-07-29T03:07:33.921Z,1010.43
2022-07-29T03:08:06.259Z,1010.43
2022-07-29T03:08:33.919Z,1010.33
2022-07-29T03:08:54.202Z,1010.33
2022-07-29T03:09:26.918Z,1010.33
2022-07-29T03:09:58.186Z,1010.33
2022-07-29T03:10:30.281Z,1010.33
2022-07-29T03:11:02.183Z,1010.33
2022-07-29T03:11:42.463Z,1010.63
2022-07-29T03:12:06.184Z,1010.63
2022-07-29T03:12:34.956Z,1010.63
2022-07-29T03:12:54.924Z,1010.63
2022-07-29T03:13:26.248Z,1010.63
2022-07-29T03:13:59.623Z,1010.53
2022-07-29T03:14:30.226Z,1010.53
2022-07-29T03:15:03.188Z,1010.53
2022-07-29T03:15:35.535Z,1010.43
2022-07-29T03:16:06.336Z,1010.43
2022-07-29T03:16:38.053Z,1010.43
2022-07-29T03:16:54.202Z,1010.43
2022-07-29T03:17:27.280Z,1010.43
2022-07-29T03:17:59.341Z,1010.53
2022-07-29T03:18:31.881Z,1010.53
2022-07-29T03:19:02.170Z,1010.53
2022-07-29T03:19:35.763Z,1010.43
2022-07-29T03:20:06.291Z,1010.43
2022-07-29T03:20:33.934Z,1010.23
2022-07-29T03:20:55.113Z,1010.23
2022-07-29T03:21:26.199Z,1010.23
2022-07-29T03:21:59.808Z,1010.43
2022-07-29T03:22:30.180Z,1010.43
2022-07-29T03:23:03.242Z,1010.53
2022-07-29T03:23:35.432Z,1010.43
2022-07-29T03:24:10.313Z,1010.43
2022-07-29T03:24:33.916Z,1010.33
2022-07-29T03:24:54.177Z,1010.33
2022-07-29T03:25:27.061Z,1010.33
2022-07-29T03:25:58.176Z,1010.43
2022-07-29T03:26:30.911Z,1010.43
2022-07-29T03:27:03.075Z,1010.43
2022-07-29T03:27:34.922Z,1010.33
2022-07-29T03:28:07.369Z,1010.33
2022-07-29T03:28:34.825Z,1010.63
2022-07-29T03:28:54.928Z,1010.63
2022-07-29T03:29:33.473Z,1010.63
2022-07-29T03:30:21.811Z,1010.43
2022-07-29T03:30:35.950Z,1010.33
2022-07-29T03:31:02.273Z,1010.33
2022-07-29T03:31:34.576Z,1010.33
2022-07-29T03:32:09.195Z,1010.33
2022-07-29T03:32:33.918Z,1010.53
2022-07-29T03:32:56.542Z,1010.53
2022-07-29T03:33:26.208Z,1010.53
2022-07-29T03:33:58.175Z,1010.33
2022-07-29T03:34:32.242Z,1010.33
2022-07-29T03:35:03.071Z,1010.33
2022-07-29T03:35:33.927Z,1010.43
2022-07-29T03:36:06.158Z,1010.43
2022-07-29T03:36:36.655Z,1010.43
2022-07-29T03:36:54.214Z,1010.43
2022-07-29T03:37:29.200Z,1010.43
2022-07-29T03:37:58.230Z,1010.43
2022-07-29T03:38:30.269Z,1010.43
2022-07-29T03:39:04.829Z,1010.43
2022-07-29T03:39:40.302Z,1010.33
2022-07-29T03:40:38.916Z,1010.33
2022-07-29T03:41:14.343Z,1010.33
2022-07-29T03:41:35.540Z,1010.33
2022-07-29T03:42:14.702Z,1010.33
2022-07-29T03:42:35.987Z,1010.33
2022-07-29T03:43:02.188Z,1010.33
2022-07-29T03:43:34.648Z,1010.23
2022-07-29T03:44:06.191Z,1010.23
2022-07-29T03:44:34.687Z,1010.43
2022-07-29T03:44:54.339Z,1010.43
2022-07-29T03:45:26.534Z,1010.43
2022-07-29T03:45:58.846Z,1010.33
2022-07-29T03:46:30.294Z,1010.33
2022-07-29T03:47:02.717Z,1010.43
2022-07-29T03:47:38.587Z,1010.33
2022-07-29T03:48:06.701Z,1010.33
2022-07-29T03:48:34.345Z,1010.43
2022-07-29T03:48:54.273Z,1010.43
2022-07-29T03:49:26.514Z,1010.43
2022-07-29T03:49:58.222Z,1010.43
2022-07-29T03:50:30.256Z,1010.43
2022-07-29T03:51:02.194Z,1010.33
2022-07-29T03:51:34.942Z,1010.33
2022-07-29T03:52:06.209Z,1010.33
2022-07-29T03:52:33.942Z,1010.33
2022-07-29T03:52:54.233Z,1010.33
2022-07-29T03:53:26.755Z,1010.33
2022-07-29T03:53:58.215Z,1010.33
2022-07-29T03:54:30.728Z,1010.33
2022-07-29T03:55:02.301Z,1010.33
2022-07-29T03:55:35.696Z,1010.43
2022-07-29T03:56:07.210Z,1010.43
2022-07-29T03:56:33.945Z,1010.23
2022-07-29T03:56:54.200Z,1010.23
2022-07-29T03:57:26.225Z,1010.23
2022-07-29T03:57:58.696Z,1010.43
2022-07-29T03:58:30.220Z,1010.43
2022-07-29T03:59:02.776Z,1010.33
2022-07-29T03:59:33.985Z,1010.33
2022-07-29T04:00:07.111Z,1010.33
2022-07-29T04:00:35.153Z,1010.33
2022-07-29T04:00:54.286Z,1010.33
2022-07-29T04:01:26.319Z,1010.33
2022-07-29T04:01:58.874Z,1010.43
2022-07-29T04:02:30.710Z,1010.43
2022-07-29T04:03:02.226Z,1010.33
2022-07-29T04:03:34.002Z,1010.43
2022-07-29T04:04:06.267Z,1010.43
2022-07-29T04:04:34.849Z,1010.43
2022-07-29T04:04:54.262Z,1010.43
2022-07-29T04:05:26.806Z,1010.43
2022-07-29T04:05:58.181Z,1010.33
2022-07-29T04:06:30.724Z,1010.33
2022-07-29T04:07:02.212Z,1010.33
2022-07-29T04:07:35.585Z,1010.33
2022-07-29T04:08:06.175Z,1010.33
2022-07-29T04:08:36.053Z,1010.33
2022-07-29T04:08:54.247Z,1010.33
2022-07-29T04:09:26.179Z,1010.33
2022-07-29T04:09:58.820Z,1010.43
2022-07-29T04:10:32.207Z,1010.43
2022-07-29T04:11:04.926Z,1010.43
2022-07-29T04:11:34.063Z,1010.43
2022-07-29T04:12:06.860Z,1010.43
2022-07-29T04:12:33.946Z,1010.43
2022-07-29T04:12:54.227Z,1010.43
2022-07-29T04:13:27.345Z,1010.43
2022-07-29T04:13:58.177Z,1010.43
2022-07-29T04:14:30.172Z,1010.43
2022-07-29T04:15:02.730Z,1010.63
2022-07-29T04:15:34.021Z,1010.33
2022-07-29T04:16:06.196Z,1010.33
2022-07-29T04:16:34.033Z,1010.53
2022-07-29T04:16:54.227Z,1010.53
2022-07-29T04:17:26.742Z,1010.53
2022-07-29T04:17:58.170Z,1010.23
2022-07-29T04:18:30.847Z,1010.23
2022-07-29T04:19:02.206Z,1010.53
2022-07-29T04:19:35.443Z,1010.43
2022-07-29T04:20:06.274Z,1010.43
2022-07-29T04:20:33.982Z,1010.53
2022-07-29T04:20:54.282Z,1010.53
2022-07-29T04:21:27.091Z,1010.53
2022-07-29T04:21:58.835Z,1010.43
2022-07-29T04:22:31.068Z,1010.43
2022-07-29T04:23:04.664Z,1010.53
2022-07-29T04:23:33.993Z,1010.53
2022-07-29T04:24:06.709Z,1010.53
2022-07-29T04:24:34.005Z,1010.43
2022-07-29T04:24:54.261Z,1010.43
2022-07-29T04:25:26.283Z,1010.43
2022-07-29T04:25:58.200Z,1010.63
2022-07-29T04:26:30.162Z,1010.63
2022-07-29T04:27:02.225Z,1010.43
2022-07-29T04:27:35.489Z,1010.43
2022-07-29T04:28:06.196Z,1010.43
2022-07-29T04:28:34.022Z,1010.33
2022-07-29T04:28:54.961Z,1010.33
2022-07-29T04:29:28.668Z,1010.33
2022-07-29T04:29:58.176Z,1010.53
2022-07-29T04:30:31.311Z,1010.53
2022-07-29T04:31:02.225Z,1010.53
2022-07-29T04:31:34.649Z,1010.53
2022-07-29T04:32:07.168Z,1010.53
2022-07-29T04:32:34.950Z,1010.53
2022-07-29T04:32:54.247Z,1010.53
2022-07-29T04:33:26.186Z,1010.53
2022-07-29T04:33:58.799Z,1010.43
2022-07-29T04:34:30.243Z,1010.43
2022-07-29T04:35:03.102Z,1010.53
2022-07-29T04:35:38.070Z,1010.63
2022-07-29T04:36:06.696Z,1010.63
2022-07-29T04:36:34.007Z,1010.63
2022-07-29T04:36:54.239Z,1010.63
2022-07-29T04:37:26.201Z,1010.63
2022-07-29T04:37:59.159Z,1010.73
2022-07-29T04:38:31.662Z,1010.73
2022-07-29T04:39:02.196Z,1010.73
2022-07-29T04:39:34.843Z,1010.53
2022-07-29T04:40:06.266Z,1010.53
2022-07-29T04:40:34.843Z,1010.73
2022-07-29T04:40:54.308Z,1010.73
2022-07-29T04:41:32.780Z,1010.73
2022-07-29T04:41:58.187Z,1010.53
2022-07-29T04:42:31.483Z,1010.53
2022-07-29T04:43:05.709Z,1010.53
2022-07-29T04:43:36.872Z,1010.63
2022-07-29T04:44:07.015Z,1010.63
2022-07-29T04:44:33.971Z,1010.63
2022-07-29T04:44:54.957Z,1010.63
2022-07-29T04:45:26.611Z,1010.63
2022-07-29T04:45:58.735Z,1010.53
2022-07-29T04:46:30.190Z,1010.53
2022-07-29T04:47:02.655Z,1010.63
2022-07-29T04:47:33.941Z,1010.63
2022-07-29T04:48:06.651Z,1010.63
2022-07-29T04:48:33.936Z,1010.63
2022-07-29T04:48:54.296Z,1010.63
2022-07-29T04:49:26.478Z,1010.63
2022-07-29T04:49:58.145Z,1010.53
2022-07-29T04:50:30.378Z,1010.53
2022-07-29T04:51:02.190Z,1010.53
2022-07-29T04:51:36.077Z,1010.43
2022-07-29T04:52:06.191Z,1010.43
2022-07-29T04:52:33.941Z,1010.53
2022-07-29T04:52:54.147Z,1010.53
2022-07-29T04:53:26.667Z,1010.53
2022-07-29T04:53:59.178Z,1010.53
2022-07-29T04:54:31.645Z,1010.53
2022-07-29T04:55:02.275Z,1010.43
2022-07-29T04:55:34.461Z,1010.63
2022-07-29T04:56:06.220Z,1010.63
2022-07-29T04:56:35.840Z,1010.53
2022-07-29T04:56:54.175Z,1010.53
2022-07-29T04:57:26.176Z,1010.53
2022-07-29T04:57:59.688Z,1010.43
2022-07-29T04:58:31.234Z,1010.43
2022-07-29T04:59:03.719Z,1010.63
2022-07-29T04:59:35.050Z,1010.73
2022-07-29T05:00:07.009Z,1010.73
2022-07-29T05:00:34.640Z,1010.63
2022-07-29T05:00:54.226Z,1010.63
2022-07-29T05:01:26.239Z,1010.63
2022-07-29T05:01:58.893Z,1010.63
2022-07-29T05:02:30.242Z,1010.63
2022-07-29T05:03:02.194Z,1010.53
2022-07-29T05:03:33.938Z,1010.63
2022-07-29T05:04:06.143Z,1010.63
2022-07-29T05:04:34.833Z,1010.43
2022-07-29T05:04:54.359Z,1010.43
2022-07-29T05:05:26.280Z,1010.43
2022-07-29T05:05:58.209Z,1010.63
2022-07-29T05:06:30.202Z,1010.63
2022-07-29T05:07:02.189Z,1010.73
2022-07-29T05:07:35.143Z,1010.53
2022-07-29T05:08:06.162Z,1010.53
2022-07-29T05:08:34.634Z,1010.63
2022-07-29T05:08:54.664Z,1010.63
2022-07-29T05:09:26.137Z,1010.63
2022-07-29T05:09:58.638Z,1010.63
2022-07-29T05:10:31.267Z,1010.63
2022-07-29T05:11:11.513Z,1010.63
2022-07-29T05:11:35.237Z,1010.53
2022-07-29T05:12:07.592Z,1010.53
2022-07-29T05:12:34.638Z,1010.84
2022-07-29T05:12:54.965Z,1010.84
2022-07-29T05:13:26.185Z,1010.84
2022-07-29T05:13:59.069Z,1010.53
2022-07-29T05:14:30.156Z,1010.53
2022-07-29T05:15:02.448Z,1010.63
2022-07-29T05:15:33.987Z,1010.63
2022-07-29T05:16:06.211Z,1010.63
2022-07-29T05:16:33.955Z,1010.63
2022-07-29T05:16:54.250Z,1010.63
2022-07-29T05:17:26.654Z,1010.63
2022-07-29T05:17:58.132Z,1010.63
2022-07-29T05:18:31.470Z,1010.63
2022-07-29T05:19:02.130Z,1010.63
2022-07-29T05:19:39.385Z,1010.53
2022-07-29T05:20:06.266Z,1010.53
2022-07-29T05:20:34.336Z,1010.73
2022-07-29T05:20:54.283Z,1010.73
2022-07-29T05:21:26.752Z,1010.73
2022-07-29T05:21:58.667Z,1010.73
2022-07-29T05:22:30.155Z,1010.73
2022-07-29T05:23:03.102Z,1010.63
2022-07-29T05:23:33.984Z,1010.63
2022-07-29T05:24:06.628Z,1010.63
2022-07-29T05:24:33.939Z,1010.73
2022-07-29T05:24:54.126Z,1010.73
2022-07-29T05:25:44.416Z,1010.73
2022-07-29T05:25:58.196Z,1010.63
2022-07-29T05:26:30.119Z,1010.63
2022-07-29T05:27:02.184Z,1010.63
2022-07-29T05:27:33.967Z,1010.73
2022-07-29T05:28:06.151Z,1010.73
2022-07-29T05:28:35.034Z,1010.53
2022-07-29T05:28:54.198Z,1010.53
2022-07-29T05:29:43.005Z,1010.53
2022-07-29T05:29:58.254Z,1010.73
2022-07-29T05:30:31.067Z,1010.73
2022-07-29T05:31:02.214Z,1010.63
2022-07-29T05:31:35.571Z,1010.63
2022-07-29T05:32:06.165Z,1010.63
2022-07-29T05:32:35.536Z,1010.63
2022-07-29T05:32:54.138Z,1010.63
2022-07-29T05:33:34.693Z,1010.63
2022-07-29T05:33:58.622Z,1010.53
2022-07-29T05:34:31.052Z,1010.53
2022-07-29T05:35:02.798Z,1010.63
2022-07-29T05:35:34.576Z,1010.73
2022-07-29T05:36:06.726Z,1010.73
2022-07-29T05:36:33.936Z,1010.63
2022-07-29T05:36:54.130Z,1010.63
2022-07-29T05:37:26.172Z,1010.63
2022-07-29T05:37:58.191Z,1010.84
2022-07-29T05:38:31.053Z,1010.84
2022-07-29T05:39:03.209Z,1010.63
2022-07-29T05:39:48.826Z,1010.73
2022-07-29T05:40:06.278Z,1010.73
2022-07-29T05:40:34.036Z,1010.73
2022-07-29T05:40:54.219Z,1010.73
2022-07-29T05:41:26.618Z,1010.73
2022-07-29T05:41:58.160Z,1010.84
2022-07-29T05:42:30.618Z,1010.84
2022-07-29T05:43:02.150Z,1010.73
2022-07-29T05:43:34.579Z,1010.94
2022-07-29T05:44:06.122Z,1010.94
2022-07-29T05:44:33.932Z,1010.73
2022-07-29T05:44:54.150Z,1010.73
2022-07-29T05:45:26.355Z,1010.73
2022-07-29T05:45:58.763Z,1010.84
2022-07-29T05:46:30.197Z,1010.84
2022-07-29T05:47:02.645Z,1010.73
2022-07-29T05:47:35.582Z,1010.84
2022-07-29T05:48:06.634Z,1010.84
2022-07-29T05:48:33.936Z,1010.63
2022-07-29T05:48:54.176Z,1010.63
2022-07-29T05:49:27.273Z,1010.63
2022-07-29T05:49:58.118Z,1010.63
2022-07-29T05:50:30.231Z,1010.63
2022-07-29T05:51:02.155Z,1010.73
2022-07-29T05:51:33.939Z,1010.84
2022-07-29T05:52:06.119Z,1010.84
2022-07-29T05:52:33.941Z,1010.73
2022-07-29T05:52:55.088Z,1010.73
2022-07-29T05:53:26.648Z,1010.73
2022-07-29T05:53:58.108Z,1010.63
2022-07-29T05:54:30.738Z,1010.63
2022-07-29T05:55:02.234Z,1010.84
2022-07-29T05:55:35.745Z,1010.63
2022-07-29T05:56:06.113Z,1010.63
2022-07-29T05:56:34.841Z,1010.73
2022-07-29T05:56:54.107Z,1010.73
2022-07-29T05:57:26.111Z,1010.73
2022-07-29T05:57:58.641Z,1010.84
2022-07-29T05:58:30.210Z,1010.84
2022-07-29T05:59:03.102Z,1010.94
2022-07-29T05:59:33.946Z,1010.73
2022-07-29T06:00:07.690Z,1010.73
2022-07-29T06:00:33.978Z,1010.84
2022-07-29T06:00:54.342Z,1010.84
2022-07-29T06:01:26.969Z,1010.84
2022-07-29T06:01:58.681Z,1010.84
2022-07-29T06:02:30.164Z,1010.84
2022-07-29T06:03:02.133Z,1010.84
2022-07-29T06:03:35.038Z,1010.84
2022-07-29T06:04:06.163Z,1010.84
2022-07-29T06:04:34.035Z,1010.94
2022-07-29T06:04:54.188Z,1010.94
2022-07-29T06:05:26.739Z,1010.94
2022-07-29T06:05:58.409Z,1010.84
2022-07-29T06:06:30.657Z,1010.84
2022-07-29T06:07:02.101Z,1010.94
2022-07-29T06:07:34.533Z,1010.84
2022-07-29T06:08:06.106Z,1010.84
2022-07-29T06:08:33.991Z,1010.84
2022-07-29T06:08:54.100Z,1010.84
2022-07-29T06:09:27.085Z,1010.84
2022-07-29T06:09:58.688Z,1010.94
2022-07-29T06:10:30.389Z,1010.94
2022-07-29T06:11:02.731Z,1010.94
2022-07-29T06:11:35.339Z,1010.94
2022-07-29T06:12:07.948Z,1010.94
2022-07-29T06:12:34.981Z,1010.84
2022-07-29T06:12:54.125Z,1010.84
2022-07-29T06:13:26.099Z,1010.84
2022-07-29T06:13:58.250Z,1010.94
2022-07-29T06:14:33.935Z,1011.04
2022-07-29T06:15:02.366Z,1011.04
2022-07-29T06:15:35.018Z,1011.04
2022-07-29T06:16:06.241Z,1011.04
2022-07-29T06:16:34.990Z,1011.04
2022-07-29T06:16:54.150Z,1011.04
2022-07-29T06:17:26.640Z,1011.04
2022-07-29T06:18:00.686Z,1010.94
2022-07-29T06:18:30.768Z,1010.94
2022-07-29T06:19:02.125Z,1010.94
2022-07-29T06:19:45.333Z,1010.94
2022-07-29T06:20:07.532Z,1010.94
2022-07-29T06:20:33.939Z,1010.94
2022-07-29T06:20:54.817Z,1010.94
2022-07-29T06:21:26.119Z,1010.94
2022-07-29T06:21:59.140Z,1010.84
2022-07-29T06:22:30.095Z,1010.84
2022-07-29T06:23:02.592Z,1010.94
2022-07-29T06:23:33.937Z,1010.84
2022-07-29T06:24:06.587Z,1010.84
2022-07-29T06:24:33.945Z,1010.94
2022-07-29T06:24:54.159Z,1010.94
2022-07-29T06:25:26.199Z,1010.94
2022-07-29T06:25:58.888Z,1010.84
2022-07-29T06:26:32.624Z,1010.84
2022-07-29T06:27:02.922Z,1010.94
2022-07-29T06:27:34.840Z,1010.84
2022-07-29T06:28:06.103Z,1010.84
2022-07-29T06:28:34.852Z,1010.94
2022-07-29T06:28:54.884Z,1010.94
2022-07-29T06:29:26.586Z,1010.94
2022-07-29T06:29:58.202Z,1010.84
2022-07-29T06:30:31.088Z,1010.84
2022-07-29T06:31:02.134Z,1010.94
2022-07-29T06:31:35.340Z,1011.04
2022-07-29T06:32:06.165Z,1011.04
2022-07-29T06:32:33.935Z,1010.94
2022-07-29T06:32:54.121Z,1010.94
2022-07-29T06:33:26.147Z,1010.94
2022-07-29T06:33:58.751Z,1011.14
2022-07-29T06:34:30.163Z,1011.14
2022-07-29T06:35:32.803Z,1011.04
2022-07-29T06:35:53.380Z,1011.04
2022-07-29T06:36:22.954Z,1011.04
2022-07-29T06:36:39.601Z,1011.14
2022-07-29T06:37:15.441Z,1011.14
2022-07-29T06:37:33.943Z,1011.14
2022-07-29T06:37:59.792Z,1011.14
2022-07-29T06:38:34.333Z,1011.14
2022-07-29T06:39:02.766Z,1010.94
2022-07-29T06:39:33.941Z,1011.14
2022-07-29T06:40:07.066Z,1011.14
2022-07-29T06:40:34.041Z,1011.04
2022-07-29T06:40:54.158Z,1011.04
2022-07-29T06:41:26.636Z,1011.04
2022-07-29T06:41:59.254Z,1011.14
2022-07-29T06:42:30.641Z,1011.14
2022-07-29T06:43:02.084Z,1010.84
2022-07-29T06:43:34.603Z,1011.04
2022-07-29T06:44:06.145Z,1011.04
2022-07-29T06:44:35.362Z,1011.04
2022-07-29T06:44:54.880Z,1011.04
2022-07-29T06:45:26.365Z,1011.04
2022-07-29T06:45:58.971Z,1011.24
2022-07-29T06:46:30.242Z,1011.24
2022-07-29T06:47:02.127Z,1011.04
2022-07-29T06:47:34.665Z,1011.14
2022-07-29T06:48:06.597Z,1011.14
2022-07-29T06:48:33.934Z,1011.14
2022-07-29T06:48:54.449Z,1011.14
2022-07-29T06:49:26.150Z,1011.14
2022-07-29T06:49:58.093Z,1011.14
2022-07-29T06:50:30.225Z,1011.14
2022-07-29T06:51:02.104Z,1011.14
2022-07-29T06:51:35.227Z,1011.24
2022-07-29T06:52:06.202Z,1011.24
2022-07-29T06:52:33.976Z,1011.24
2022-07-29T06:52:54.104Z,1011.24
2022-07-29T06:53:26.594Z,1011.24
2022-07-29T06:54:02.496Z,1011.14
2022-07-29T06:54:30.633Z,1011.14
2022-07-29T06:55:02.302Z,1011.24
2022-07-29T06:55:35.762Z,1011.24
2022-07-29T06:56:06.145Z,1011.24
2022-07-29T06:56:38.953Z,1011.31
2022-07-29T06:56:54.088Z,1011.31
2022-07-29T06:57:26.089Z,1011.31
2022-07-29T06:57:58.971Z,1011.31
2022-07-29T06:58:30.166Z,1011.31
2022-07-29T06:59:02.689Z,1011.24
2022-07-29T06:59:36.205Z,1011.24
2022-07-29T07:00:06.942Z,1011.24
2022-07-29T07:00:33.933Z,1011.24
2022-07-29T07:00:54.205Z,1011.24
2022-07-29T07:01:26.145Z,1011.24
2022-07-29T07:01:58.232Z,1011.24
2022-07-29T07:02:30.166Z,1011.24
2022-07-29T07:03:02.049Z,1011.31
2022-07-29T07:03:33.935Z,1011.31
2022-07-29T07:04:06.092Z,1011.31
2022-07-29T07:04:36.073Z,1011.24
2022-07-29T07:04:54.084Z,1011.24
2022-07-29T07:05:30.488Z,1011.24
2022-07-29T07:06:00.025Z,1011.31
2022-07-29T07:06:31.457Z,1011.31
2022-07-29T07:07:02.137Z,1011.31
2022-07-29T07:07:35.426Z,1011.14
2022-07-29T07:08:06.125Z,1011.14
2022-07-29T07:08:34.006Z,1011.31
2022-07-29T07:08:54.657Z,1011.31
2022-07-29T07:09:26.056Z,1011.31
2022-07-29T07:09:58.633Z,1011.24
2022-07-29T07:10:30.162Z,1011.24
2022-07-29T07:11:02.755Z,1011.24
2022-07-29T07:11:34.524Z,1011.41
2022-07-29T07:12:07.505Z,1011.41
2022-07-29T07:12:34.804Z,1011.31
2022-07-29T07:12:54.065Z,1011.31
2022-07-29T07:13:26.076Z,1011.31
2022-07-29T07:14:02.933Z,1011.31
2022-07-29T07:14:30.080Z,1011.31
2022-07-29T07:15:02.374Z,1011.31
2022-07-29T07:15:39.281Z,1011.24
2022-07-29T07:16:06.076Z,1011.24
2022-07-29T07:16:36.052Z,1011.14
2022-07-29T07:16:54.168Z,1011.14
2022-07-29T07:17:26.541Z,1011.14
2022-07-29T07:17:58.037Z,1011.24
2022-07-29T07:18:32.310Z,1011.24
2022-07-29T07:19:02.080Z,1011.04
2022-07-29T07:19:35.423Z,1011.24
2022-07-29T07:20:06.209Z,1011.24
2022-07-29T07:20:34.044Z,1011.04
2022-07-29T07:20:54.156Z,1011.04
2022-07-29T07:21:26.102Z,1011.04
2022-07-29T07:21:58.568Z,1011.31
2022-07-29T07:22:30.085Z,1011.31
2022-07-29T07:23:03.517Z,1011.41
2022-07-29T07:23:33.991Z,1011.31
2022-07-29T07:24:06.673Z,1011.31
2022-07-29T07:24:35.426Z,1011.24
2022-07-29T07:24:54.068Z,1011.24
2022-07-29T07:25:27.240Z,1011.24
2022-07-29T07:25:58.237Z,1011.14
2022-07-29T07:26:30.054Z,1011.14
2022-07-29T07:27:02.049Z,1011.24
2022-07-29T07:27:33.941Z,1011.24
2022-07-29T07:28:06.981Z,1011.24
2022-07-29T07:28:33.967Z,1011.31
2022-07-29T07:28:54.876Z,1011.31
2022-07-29T07:29:26.611Z,1011.31
2022-07-29T07:29:58.944Z,1011.14
2022-07-29T07:30:30.960Z,1011.14
2022-07-29T07:31:02.064Z,1011.14
2022-07-29T07:31:34.610Z,1011.31
2022-07-29T07:32:06.130Z,1011.31
2022-07-29T07:32:34.031Z,1011.14
2022-07-29T07:32:54.037Z,1011.14
2022-07-29T07:33:26.176Z,1011.14
2022-07-29T07:33:58.737Z,1011.31
2022-07-29T07:34:30.061Z,1011.31
2022-07-29T07:35:02.622Z,1011.04
2022-07-29T07:35:33.937Z,1011.31
2022-07-29T07:36:07.725Z,1011.31
2022-07-29T07:36:33.927Z,1011.24
2022-07-29T07:36:54.068Z,1011.24
2022-07-29T07:37:27.059Z,1011.24
2022-07-29T07:37:58.464Z,1011.24
2022-07-29T07:38:30.066Z,1011.24
2022-07-29T07:39:02.089Z,1011.31
2022-07-29T07:39:33.963Z,1011.31
2022-07-29T07:40:06.183Z,1011.31
2022-07-29T07:40:33.970Z,1011.24
2022-07-29T07:40:55.079Z,1011.24
2022-07-29T07:41:27.155Z,1011.24
2022-07-29T07:41:58.062Z,1011.24
2022-07-29T07:42:30.610Z,1011.24